Bloomingdale, New York
Current Conditions -  °F | °C
As of 2:18 AM on Wednesday 22 Oct 2014 (Local Time) from KSLK Reporting Station
Haze Haze  
Wind Chill: 38°   Ceiling: 200
Heat Index: 41°   Visibility: 0.75mi
Dew Point: 41°   Wind: 5mph
Humidity: 100%   Direction: 60°ENE
Pressure: 30.07"   Gusts: NA
Location:  44.41°N, 74.09°W
Report Text: KSLK 220618Z AUTO 06004KT 3/4SM BR OVC002 05/05 A3007 RMK AO2 T00500050
Loading
Personal Weather Stations






























Interactive Weather Map New forecast layout! Learn more

10-Day Weather Forecast

Advertisements
Track Severe Weather on mobile